createdAt,value
2023-04-20T00:02:15.565Z,2.30
2023-04-20T00:04:42.670Z,2.70
2023-04-20T00:07:09.536Z,2.53
2023-04-20T00:09:36.082Z,2.42
2023-04-20T00:12:02.588Z,2.13
2023-04-20T00:14:29.126Z,4.30
2023-04-20T00:16:55.856Z,1.88
2023-04-20T00:19:22.376Z,1.90
2023-04-20T00:21:49.026Z,3.90
2023-04-20T00:24:15.761Z,3.05
2023-04-20T00:26:42.176Z,2.95
2023-04-20T00:29:08.602Z,2.70
2023-04-20T00:31:35.008Z,3.25
2023-04-20T00:34:01.429Z,3.58
2023-04-20T00:36:27.899Z,3.38
2023-04-20T00:38:54.305Z,3.38
2023-04-20T00:41:21.330Z,2.28
2023-04-20T00:43:52.404Z,1.75
2023-04-20T00:46:20.811Z,1.92
2023-04-20T00:48:49.649Z,2.75
2023-04-20T00:51:16.225Z,2.58
2023-04-20T00:53:42.773Z,2.88
2023-04-20T00:56:09.375Z,2.38
2023-04-20T00:58:35.999Z,4.85
2023-04-20T01:01:02.439Z,3.38
2023-04-20T01:03:29.013Z,2.42
2023-04-20T01:05:55.778Z,3.70
2023-04-20T01:08:26.412Z,1.80
2023-04-20T01:10:54.194Z,3.13
2023-04-20T01:13:20.753Z,2.17
2023-04-20T01:15:47.236Z,5.28
2023-04-20T01:18:14.251Z,2.60
2023-04-20T01:20:40.743Z,3.50
2023-04-20T01:23:07.204Z,2.35
2023-04-20T01:25:33.641Z,3.20
2023-04-20T01:28:00.452Z,2.88
2023-04-20T01:30:26.898Z,2.95
2023-04-20T01:32:53.398Z,3.95
2023-04-20T01:35:19.857Z,2.45
2023-04-20T01:37:46.357Z,2.25
2023-04-20T01:40:13.777Z,3.38
2023-04-20T01:42:40.552Z,4.05
2023-04-20T01:45:07.520Z,4.80
2023-04-20T01:47:34.710Z,2.08
2023-04-20T01:50:01.184Z,3.03
2023-04-20T01:52:27.624Z,2.28
2023-04-20T01:54:54.101Z,2.67
2023-04-20T01:57:20.549Z,3.45
2023-04-20T01:59:46.964Z,4.28
2023-04-20T02:02:13.451Z,4.00
2023-04-20T02:04:40.024Z,2.40
2023-04-20T02:07:06.433Z,4.93
2023-04-20T02:09:32.877Z,2.85
2023-04-20T02:11:59.302Z,3.20
2023-04-20T02:14:25.765Z,2.50
2023-04-20T02:16:53.401Z,1.95
2023-04-20T02:19:19.944Z,4.53
2023-04-20T02:21:46.354Z,1.73
2023-04-20T02:24:12.793Z,5.25
2023-04-20T02:26:39.200Z,2.80
2023-04-20T02:29:05.737Z,4.20
2023-04-20T02:31:32.221Z,3.80
2023-04-20T02:33:58.761Z,3.10
2023-04-20T02:36:25.178Z,2.17
2023-04-20T02:38:51.624Z,3.35
2023-04-20T02:41:18.888Z,2.53
2023-04-20T02:43:45.395Z,2.33
2023-04-20T02:46:11.877Z,2.47
2023-04-20T02:48:38.310Z,2.85
2023-04-20T02:51:04.754Z,2.45
2023-04-20T02:53:31.208Z,2.83
2023-04-20T02:55:57.690Z,2.45
2023-04-20T02:58:24.172Z,2.75
2023-04-20T03:00:50.627Z,2.28
2023-04-20T03:03:17.706Z,3.17
2023-04-20T03:05:44.241Z,2.20
2023-04-20T03:08:10.678Z,1.88
2023-04-20T03:10:37.294Z,2.38
2023-04-20T03:13:03.753Z,2.67
2023-04-20T03:15:30.219Z,3.70
2023-04-20T03:17:56.714Z,2.47
2023-04-20T03:20:23.176Z,2.22
2023-04-20T03:22:49.773Z,2.38
2023-04-20T03:25:16.380Z,1.60
2023-04-20T03:27:42.878Z,3.58
2023-04-20T03:30:09.783Z,2.10
2023-04-20T03:32:36.355Z,1.70
2023-04-20T03:35:02.928Z,2.95
2023-04-20T03:37:29.353Z,4.32
2023-04-20T03:39:55.769Z,2.70
2023-04-20T03:42:22.310Z,4.10
2023-04-20T03:44:48.894Z,4.10
2023-04-20T03:47:15.556Z,2.60
2023-04-20T03:49:41.963Z,2.70
2023-04-20T03:52:08.418Z,1.45
2023-04-20T03:54:34.835Z,2.80
2023-04-20T03:57:02.227Z,2.83
2023-04-20T03:59:28.694Z,2.28
2023-04-20T04:01:55.239Z,2.78
2023-04-20T04:04:22.047Z,1.77
2023-04-20T04:06:48.704Z,2.15
2023-04-20T04:09:15.413Z,2.60
2023-04-20T04:11:42.046Z,2.13
2023-04-20T04:14:08.550Z,2.42
2023-04-20T04:16:35.028Z,4.25
2023-04-20T04:19:01.571Z,2.65
2023-04-20T04:21:28.833Z,4.95
2023-04-20T04:23:55.860Z,1.77
2023-04-20T04:26:24.945Z,3.33
2023-04-20T04:28:51.812Z,2.25
2023-04-20T04:31:19.659Z,2.72
2023-04-20T04:33:46.503Z,2.78
2023-04-20T04:36:15.290Z,2.53
2023-04-20T04:38:44.575Z,3.03
2023-04-20T04:41:14.348Z,3.45
2023-04-20T04:43:42.431Z,3.17
2023-04-20T04:46:13.251Z,2.03
2023-04-20T04:48:42.348Z,2.20
2023-04-20T04:51:09.651Z,2.38
2023-04-20T04:53:36.126Z,2.65
2023-04-20T04:56:03.564Z,3.08
2023-04-20T04:58:30.001Z,3.25
2023-04-20T05:00:56.505Z,2.67
2023-04-20T05:03:23.063Z,3.55
2023-04-20T05:05:49.576Z,1.95
2023-04-20T05:08:16.270Z,2.00
2023-04-20T05:10:42.687Z,2.65
2023-04-20T05:13:09.124Z,2.40
2023-04-20T05:15:35.605Z,2.33
2023-04-20T05:18:02.784Z,2.63
2023-04-20T05:20:29.385Z,2.67
2023-04-20T05:22:55.985Z,3.60
2023-04-20T05:25:22.612Z,4.55
2023-04-20T05:27:49.182Z,2.72
2023-04-20T05:30:21.409Z,2.15
2023-04-20T05:32:51.594Z,2.42
2023-04-20T05:35:19.389Z,2.97
2023-04-20T05:37:47.388Z,2.13
2023-04-20T05:40:15.246Z,2.63
2023-04-20T05:42:41.683Z,2.25
2023-04-20T05:45:08.904Z,2.03
2023-04-20T05:47:35.407Z,1.75
2023-04-20T05:50:02.395Z,2.28
2023-04-20T05:52:28.820Z,1.77
2023-04-20T05:54:55.287Z,2.30
2023-04-20T05:57:23.553Z,2.72
2023-04-20T05:59:50.615Z,2.70
2023-04-20T06:02:17.289Z,2.00
2023-04-20T06:04:44.137Z,1.85
2023-04-20T06:07:10.752Z,1.92
2023-04-20T06:09:37.215Z,2.33
2023-04-20T06:12:03.907Z,2.40
2023-04-20T06:14:30.318Z,2.15
2023-04-20T06:16:56.851Z,2.22
2023-04-20T06:19:23.262Z,2.28
2023-04-20T06:21:49.783Z,2.42
2023-04-20T06:24:16.326Z,3.30
2023-04-20T06:26:42.712Z,2.35
2023-04-20T06:29:09.322Z,2.60
2023-04-20T06:31:36.958Z,3.83
2023-04-20T06:34:03.508Z,2.17
2023-04-20T06:36:30.660Z,3.83
2023-04-20T06:38:57.078Z,2.38
2023-04-20T06:41:24.091Z,2.20
2023-04-20T06:43:50.566Z,2.15
2023-04-20T06:46:18.215Z,3.42
2023-04-20T06:48:44.708Z,3.15
2023-04-20T06:51:12.987Z,2.70
2023-04-20T06:53:39.436Z,4.35
2023-04-20T06:56:06.659Z,3.17
2023-04-20T06:58:33.105Z,7.60
2023-04-20T07:00:59.623Z,3.30
2023-04-20T07:03:26.906Z,3.05
2023-04-20T07:05:53.462Z,4.68
2023-04-20T07:08:20.193Z,2.53
2023-04-20T07:10:46.778Z,2.75
2023-04-20T07:13:13.270Z,3.13
2023-04-20T07:15:39.678Z,5.65
2023-04-20T07:18:06.423Z,3.95
2023-04-20T07:20:33.433Z,4.88
2023-04-20T07:22:59.867Z,2.45
2023-04-20T07:25:26.363Z,2.75
2023-04-20T07:27:52.979Z,2.63
2023-04-20T07:30:19.462Z,1.98
2023-04-20T07:32:46.280Z,3.42
2023-04-20T07:35:12.705Z,2.70
2023-04-20T07:37:39.329Z,3.38
2023-04-20T07:40:06.966Z,4.03
2023-04-20T07:42:35.155Z,2.53
2023-04-20T07:45:01.702Z,2.85
2023-04-20T07:47:28.164Z,4.20
2023-04-20T07:49:54.880Z,2.78
2023-04-20T07:52:21.360Z,3.47
2023-04-20T07:54:47.857Z,1.90
2023-04-20T07:57:14.349Z,3.38
2023-04-20T07:59:41.305Z,3.45
2023-04-20T08:02:08.421Z,4.43
2023-04-20T08:04:37.638Z,4.25
2023-04-20T08:07:04.673Z,2.55
2023-04-20T08:09:31.153Z,3.90
2023-04-20T08:11:57.664Z,3.72
2023-04-20T08:14:24.142Z,2.30
2023-04-20T08:16:50.583Z,4.72
2023-04-20T08:19:17.018Z,5.07
2023-04-20T08:21:43.593Z,4.07
2023-04-20T08:24:10.544Z,3.33
2023-04-20T08:26:37.209Z,6.80
2023-04-20T08:29:05.609Z,2.42
2023-04-20T08:31:32.684Z,2.28
2023-04-20T08:33:59.185Z,3.80
2023-04-20T08:36:28.047Z,2.53
2023-04-20T08:39:19.741Z,2.55
2023-04-20T08:41:46.850Z,3.42
2023-04-20T08:44:13.578Z,3.10
2023-04-20T08:46:45.759Z,3.10
2023-04-20T08:49:12.971Z,3.33
2023-04-20T08:51:40.081Z,5.40
2023-04-20T08:54:07.405Z,2.22
2023-04-20T08:56:42.055Z,2.42
2023-04-20T08:59:13.971Z,2.72
2023-04-20T09:01:41.889Z,3.78
2023-04-20T09:04:20.110Z,4.60
2023-04-20T09:06:50.234Z,2.58
2023-04-20T09:09:17.162Z,4.28
2023-04-20T09:11:44.030Z,3.38
2023-04-20T09:14:12.989Z,2.05
2023-04-20T09:17:05.130Z,2.60
2023-04-20T09:19:31.913Z,3.83
2023-04-20T09:22:00.385Z,2.95
2023-04-20T09:24:34.598Z,3.88
2023-04-20T09:27:02.771Z,3.42
2023-04-20T09:29:30.209Z,2.55
2023-04-20T09:31:56.683Z,2.90
2023-04-20T09:34:23.915Z,4.30
2023-04-20T09:36:54.137Z,2.70
2023-04-20T09:39:24.546Z,3.60
2023-04-20T09:41:52.481Z,3.22
2023-04-20T09:44:20.144Z,3.10
2023-04-20T09:46:47.164Z,2.80
2023-04-20T09:49:14.824Z,2.28
2023-04-20T09:51:46.380Z,4.25
2023-04-20T09:54:14.009Z,3.35
2023-04-20T09:56:41.190Z,3.45
2023-04-20T09:59:08.020Z,3.17
2023-04-20T10:01:36.613Z,2.83
2023-04-20T10:04:06.794Z,3.13
2023-04-20T10:06:34.687Z,2.53
2023-04-20T10:09:02.727Z,4.60
2023-04-20T10:11:48.835Z,6.38
2023-04-20T10:14:23.455Z,3.45
2023-04-20T10:17:05.253Z,4.45
2023-04-20T10:19:41.760Z,3.10
2023-04-20T10:22:10.404Z,2.50
2023-04-20T10:24:40.550Z,3.80
2023-04-20T10:27:20.438Z,5.35
2023-04-20T10:29:47.461Z,4.10
2023-04-20T10:32:24.208Z,4.00
2023-04-20T10:35:07.815Z,2.72
2023-04-20T10:37:35.240Z,3.15
2023-04-20T10:40:02.408Z,4.05
2023-04-20T10:42:29.720Z,3.03
2023-04-20T10:44:56.372Z,1.95
2023-04-20T10:47:30.389Z,3.88
2023-04-20T10:50:26.309Z,1.92
2023-04-20T10:52:53.404Z,3.55
2023-04-20T10:55:23.461Z,3.15
2023-04-20T10:57:50.488Z,3.65
2023-04-20T11:00:18.782Z,3.30
2023-04-20T11:02:59.024Z,3.22
2023-04-20T11:05:27.464Z,2.15
2023-04-20T11:08:01.211Z,3.17
2023-04-20T11:10:41.484Z,3.33
2023-04-20T11:13:19.487Z,2.20
2023-04-20T11:15:45.953Z,4.00
2023-04-20T11:18:12.593Z,1.80
2023-04-20T11:20:53.944Z,4.20
2023-04-20T11:23:26.649Z,2.35
2023-04-20T11:25:55.089Z,2.78
2023-04-20T11:28:21.906Z,2.53
2023-04-20T11:30:50.862Z,4.55
2023-04-20T11:33:30.178Z,1.90
2023-04-20T11:35:58.322Z,2.95
2023-04-20T11:38:32.699Z,2.70
2023-04-20T11:41:04.450Z,4.82
2023-04-20T11:43:32.417Z,6.95
2023-04-20T11:46:00.047Z,4.63
2023-04-20T11:48:27.576Z,3.03
2023-04-20T11:50:54.087Z,2.22
2023-04-20T11:53:21.090Z,2.30
2023-04-20T11:55:47.589Z,3.50
2023-04-20T11:58:14.026Z,2.28
2023-04-20T12:00:40.664Z,1.80
2023-04-20T12:03:07.363Z,2.90
2023-04-20T12:05:34.105Z,3.25
2023-04-20T12:08:00.612Z,2.38
2023-04-20T12:10:27.023Z,2.53
2023-04-20T12:12:56.857Z,3.25
2023-04-20T12:15:23.459Z,4.07
2023-04-20T12:17:49.967Z,3.05
2023-04-20T12:20:16.700Z,1.92
2023-04-20T12:22:43.136Z,1.80
2023-04-20T12:25:09.926Z,2.38
2023-04-20T12:27:36.358Z,2.22
2023-04-20T12:30:04.098Z,1.77
2023-04-20T12:32:30.541Z,2.65
2023-04-20T12:34:56.974Z,1.80
2023-04-20T12:37:23.433Z,1.95
2023-04-20T12:39:49.856Z,3.65
2023-04-20T12:42:16.271Z,2.13
2023-04-20T12:44:42.731Z,2.10
2023-04-20T12:47:09.300Z,2.50
2023-04-20T12:49:35.925Z,2.88
2023-04-20T12:52:02.344Z,2.85
2023-04-20T12:54:29.822Z,2.58
2023-04-20T12:56:57.074Z,1.98
2023-04-20T12:59:23.579Z,2.75
2023-04-20T13:01:50.447Z,2.92
2023-04-20T13:04:17.239Z,1.75
2023-04-20T13:06:44.210Z,1.70
2023-04-20T13:09:10.609Z,1.92
2023-04-20T13:11:37.045Z,2.42
2023-04-20T13:14:03.680Z,2.58
2023-04-20T13:16:30.292Z,2.13
2023-04-20T13:18:56.877Z,2.45
2023-04-20T13:21:23.316Z,2.45
2023-04-20T13:23:49.780Z,2.25
2023-04-20T13:26:16.263Z,2.42
2023-04-20T13:28:42.849Z,2.72
2023-04-20T13:31:09.286Z,3.00
2023-04-20T13:33:35.824Z,2.10
2023-04-20T13:36:02.640Z,1.60
2023-04-20T13:38:29.172Z,2.40
2023-04-20T13:40:56.055Z,1.85
2023-04-20T13:43:22.565Z,2.72
2023-04-20T13:45:49.146Z,2.85
2023-04-20T13:48:15.721Z,2.35
2023-04-20T13:50:42.136Z,3.17
2023-04-20T13:53:08.661Z,2.15
2023-04-20T13:55:35.142Z,2.85
2023-04-20T13:58:01.628Z,2.08
2023-04-20T14:00:28.116Z,2.97
2023-04-20T14:02:54.646Z,2.05
2023-04-20T14:05:21.199Z,1.77
2023-04-20T14:07:47.673Z,2.03
2023-04-20T14:10:14.106Z,2.05
2023-04-20T14:12:40.559Z,2.17
2023-04-20T14:15:07.376Z,2.60
2023-04-20T14:17:33.892Z,3.10
2023-04-20T14:20:00.598Z,1.98
2023-04-20T14:22:27.068Z,2.13
2023-04-20T14:24:53.483Z,1.55
2023-04-20T14:27:20.022Z,1.48
2023-04-20T14:29:46.462Z,2.03
2023-04-20T14:32:12.902Z,1.75
2023-04-20T14:34:39.471Z,1.80
2023-04-20T14:37:05.940Z,2.25
2023-04-20T14:39:32.383Z,1.90
2023-04-20T14:41:58.795Z,1.63
2023-04-20T14:44:25.215Z,2.25
2023-04-20T14:46:55.195Z,1.50
2023-04-20T14:49:21.863Z,1.92
2023-04-20T14:51:48.590Z,2.28
2023-04-20T14:54:15.043Z,3.55
2023-04-20T14:56:41.513Z,1.73
2023-04-20T14:59:07.959Z,2.55
2023-04-20T15:01:34.532Z,3.97
2023-04-20T15:04:01.443Z,3.97
2023-04-20T15:06:28.316Z,2.35
2023-04-20T15:08:56.357Z,5.80
2023-04-20T15:11:23.141Z,2.80
2023-04-20T15:13:51.106Z,3.45
2023-04-20T15:16:17.769Z,3.08
2023-04-20T15:18:44.278Z,2.50
2023-04-20T15:21:10.967Z,4.35
2023-04-20T15:23:37.541Z,4.65
2023-04-20T15:26:04.172Z,4.32
2023-04-20T15:28:30.684Z,6.97
2023-04-20T15:30:57.122Z,7.32
2023-04-20T15:33:23.581Z,9.68
2023-04-20T15:35:50.438Z,14.15
2023-04-20T15:38:16.854Z,11.68
2023-04-20T15:40:43.258Z,25.40
2023-04-20T15:43:09.733Z,23.50
2023-04-20T15:45:36.311Z,21.63
2023-04-20T15:48:02.926Z,21.30
2023-04-20T15:50:29.493Z,21.52
2023-04-20T15:52:55.968Z,20.00
2023-04-20T15:55:22.514Z,17.95
2023-04-20T15:57:48.917Z,13.00
2023-04-20T16:00:15.812Z,16.90
2023-04-20T16:02:42.381Z,13.20
2023-04-20T16:05:09.473Z,13.55
2023-04-20T16:07:36.058Z,14.82
2023-04-20T16:10:03.248Z,15.48
2023-04-20T16:12:29.848Z,13.88
2023-04-20T16:14:57.328Z,15.32
2023-04-20T16:17:24.039Z,12.55
2023-04-20T16:19:50.647Z,12.85
2023-04-20T16:22:17.115Z,9.48
2023-04-20T16:24:43.568Z,9.85
2023-04-20T16:27:09.988Z,14.57
2023-04-20T16:29:36.493Z,9.75
2023-04-20T16:32:02.917Z,14.30
2023-04-20T16:34:30.911Z,9.48
2023-04-20T16:36:57.461Z,7.53
2023-04-20T16:39:24.332Z,11.88
2023-04-20T16:41:51.210Z,12.93
2023-04-20T16:44:17.774Z,12.27
2023-04-20T16:46:44.576Z,9.73
2023-04-20T16:49:11.080Z,9.98
2023-04-20T16:51:38.013Z,11.00
2023-04-20T16:54:04.593Z,10.18
2023-04-20T16:56:30.997Z,9.50
2023-04-20T16:58:57.440Z,9.20
2023-04-20T17:01:23.928Z,11.75
2023-04-20T17:03:51.354Z,7.43
2023-04-20T17:06:18.047Z,8.02
2023-04-20T17:08:44.565Z,6.65
2023-04-20T17:11:11.086Z,9.82
2023-04-20T17:13:38.152Z,7.32
2023-04-20T17:16:04.817Z,6.10
2023-04-20T17:18:34.145Z,5.97
2023-04-20T17:21:01.592Z,5.63
2023-04-20T17:23:28.081Z,6.43
2023-04-20T17:25:54.770Z,7.13
2023-04-20T17:28:21.325Z,7.60
2023-04-20T17:30:47.791Z,6.65
2023-04-20T17:33:14.360Z,5.97
2023-04-20T17:35:40.789Z,8.15
2023-04-20T17:38:07.537Z,4.97
2023-04-20T17:40:34.300Z,6.70
2023-04-20T17:43:01.889Z,4.97
2023-04-20T17:45:28.697Z,6.68
2023-04-20T17:47:55.814Z,5.20
2023-04-20T17:50:22.770Z,7.75
2023-04-20T17:52:49.384Z,7.20
2023-04-20T17:55:15.838Z,5.68
2023-04-20T17:57:42.273Z,6.32
2023-04-20T18:00:11.675Z,6.63
2023-04-20T18:02:38.804Z,6.03
2023-04-20T18:05:06.300Z,5.22
2023-04-20T18:07:32.840Z,4.05
2023-04-20T18:09:59.345Z,6.97
2023-04-20T18:12:25.955Z,9.18
2023-04-20T18:14:52.451Z,5.47
2023-04-20T18:17:18.951Z,5.90
2023-04-20T18:19:45.392Z,5.05
2023-04-20T18:22:11.886Z,6.82
2023-04-20T18:24:38.423Z,4.30
2023-04-20T18:27:04.908Z,4.85
2023-04-20T18:29:31.497Z,4.57
2023-04-20T18:32:01.200Z,4.20
2023-04-20T18:34:31.067Z,3.50
2023-04-20T18:36:58.517Z,5.65
2023-04-20T18:39:25.670Z,5.50
2023-04-20T18:41:52.131Z,4.22
2023-04-20T18:44:18.621Z,3.72
2023-04-20T18:46:45.429Z,2.75
2023-04-20T18:49:11.913Z,4.13
2023-04-20T18:51:38.476Z,6.45
2023-04-20T18:54:05.089Z,3.17
2023-04-20T18:56:32.232Z,4.38
2023-04-20T18:58:59.524Z,3.38
2023-04-20T19:01:26.331Z,2.97
2023-04-20T19:03:53.217Z,5.10
2023-04-20T19:06:19.795Z,3.60
2023-04-20T19:08:46.348Z,3.80
2023-04-20T19:11:12.816Z,4.25
2023-04-20T19:13:44.513Z,2.63
2023-04-20T19:16:12.240Z,5.10
2023-04-20T19:18:39.114Z,4.53
2023-04-20T19:21:05.979Z,4.18
2023-04-20T19:23:32.556Z,2.70
2023-04-20T19:25:59.128Z,3.70
2023-04-20T19:28:25.626Z,4.78
2023-04-20T19:30:52.171Z,3.53
2023-04-20T19:33:18.785Z,5.80
2023-04-20T19:35:50.544Z,3.40
2023-04-20T19:38:21.644Z,3.25
2023-04-20T19:40:48.908Z,3.05
2023-04-20T19:43:16.934Z,3.00
2023-04-20T19:45:43.720Z,3.22
2023-04-20T19:48:10.432Z,6.38
2023-04-20T19:50:37.286Z,3.78
2023-04-20T19:53:04.333Z,3.95
2023-04-20T19:55:31.056Z,3.05
2023-04-20T19:57:57.470Z,3.67
2023-04-20T20:00:23.947Z,3.35
2023-04-20T20:02:50.561Z,3.53
2023-04-20T20:05:17.342Z,2.92
2023-04-20T20:07:43.786Z,3.78
2023-04-20T20:10:10.346Z,2.58
2023-04-20T20:12:36.824Z,4.18
2023-04-20T20:15:04.641Z,5.82
2023-04-20T20:17:31.181Z,2.95
2023-04-20T20:19:58.102Z,3.40
2023-04-20T20:22:24.653Z,3.13
2023-04-20T20:24:54.164Z,2.88
2023-04-20T20:27:21.072Z,4.88
2023-04-20T20:29:47.511Z,3.88
2023-04-20T20:32:13.949Z,2.88
2023-04-20T20:34:41.333Z,3.50
2023-04-20T20:37:10.309Z,2.88
2023-04-20T20:39:37.288Z,2.88
2023-04-20T20:42:04.812Z,2.90
2023-04-20T20:44:39.754Z,2.67
2023-04-20T20:47:06.637Z,5.15
2023-04-20T20:49:33.334Z,3.05
2023-04-20T20:51:59.840Z,2.85
2023-04-20T20:54:26.269Z,3.42
2023-04-20T20:56:52.795Z,4.07
2023-04-20T20:59:19.416Z,3.47
2023-04-20T21:01:46.011Z,3.10
2023-04-20T21:04:12.610Z,3.40
2023-04-20T21:06:39.068Z,3.22
2023-04-20T21:09:05.684Z,3.17
2023-04-20T21:11:32.145Z,2.88
2023-04-20T21:14:01.777Z,3.13
2023-04-20T21:16:28.754Z,4.22
2023-04-20T21:18:55.276Z,3.20
2023-04-20T21:21:21.774Z,4.13
2023-04-20T21:23:49.187Z,3.13
2023-04-20T21:26:16.359Z,3.30
2023-04-20T21:28:42.899Z,3.65
2023-04-20T21:31:09.342Z,3.28
2023-04-20T21:33:36.089Z,3.08
2023-04-20T21:36:02.616Z,3.75
2023-04-20T21:38:29.070Z,2.50
2023-04-20T21:40:55.569Z,3.03
2023-04-20T21:43:22.024Z,2.90
2023-04-20T21:45:48.454Z,2.97
2023-04-20T21:48:14.876Z,3.83
2023-04-20T21:50:41.343Z,4.20
2023-04-20T21:53:07.768Z,3.20
2023-04-20T21:55:34.224Z,2.88
2023-04-20T21:58:00.815Z,2.97
2023-04-20T22:00:27.396Z,3.13
2023-04-20T22:02:54.023Z,3.10
2023-04-20T22:05:20.697Z,4.68
2023-04-20T22:07:47.162Z,3.10
2023-04-20T22:10:13.626Z,5.00
2023-04-20T22:12:42.300Z,3.13
2023-04-20T22:15:13.750Z,5.55
2023-04-20T22:17:41.393Z,3.53
2023-04-20T22:20:10.045Z,2.67
2023-04-20T22:22:37.239Z,3.45
2023-04-20T22:25:04.800Z,3.75
2023-04-20T22:27:32.960Z,4.93
2023-04-20T22:29:59.610Z,4.35
2023-04-20T22:32:26.202Z,3.30
2023-04-20T22:34:52.704Z,3.15
2023-04-20T22:37:19.236Z,3.92
2023-04-20T22:39:45.746Z,4.00
2023-04-20T22:42:12.272Z,3.95
2023-04-20T22:44:38.741Z,2.97
2023-04-20T22:47:05.243Z,4.03
2023-04-20T22:49:32.136Z,3.55
2023-04-20T22:51:58.663Z,3.53
2023-04-20T22:54:26.451Z,3.95
2023-04-20T22:56:53.479Z,5.13
2023-04-20T22:59:20.288Z,3.15
2023-04-20T23:01:46.889Z,4.00
2023-04-20T23:04:13.458Z,4.28
2023-04-20T23:06:43.744Z,3.63
2023-04-20T23:09:12.534Z,3.60
2023-04-20T23:11:39.704Z,3.65
2023-04-20T23:14:06.709Z,3.90
2023-04-20T23:16:34.113Z,3.58
2023-04-20T23:19:01.105Z,3.42
2023-04-20T23:21:28.670Z,3.35
2023-04-20T23:23:57.756Z,4.10
2023-04-20T23:26:24.309Z,4.03
2023-04-20T23:28:52.090Z,3.70
2023-04-20T23:31:21.372Z,3.83
2023-04-20T23:33:48.499Z,3.92
2023-04-20T23:36:15.179Z,3.42
2023-04-20T23:38:41.968Z,5.00
2023-04-20T23:41:13.599Z,3.50
2023-04-20T23:43:41.125Z,4.47
2023-04-20T23:46:08.449Z,3.92
2023-04-20T23:48:34.974Z,3.03
2023-04-20T23:51:01.864Z,4.03
2023-04-20T23:53:28.466Z,3.67
2023-04-20T23:55:59.797Z,3.78
2023-04-20T23:58:27.256Z,4.03
